Time;durP1;ratioP1;P1;durP2;ratioP2;P2;SDS_P1;SDS_P2;PMS_P1;PMS_P2;Temp;Humidity;BMP_temperature;BMP_pressure;BME280_temperature;BME280_humidity;BME280_pressure;Samples;Min_cycle;Max_cycle;Signal;HPM_P1;HPM_P2
2024/04/19 00:01:45;;;;;;;48.13;7.43;;;;;;;5.83;100.00;97968.63;5329408;26;20441;-61
2024/04/19 00:04:11;;;;;;;77.05;8.20;;;;;;;5.84;100.00;97964.34;5331987;26;20381;-63
2024/04/19 00:06:36;;;;;;;70.63;10.00;;;;;;;5.79;100.00;97960.84;5329942;26;20004;-63
2024/04/19 00:09:02;;;;;;;59.38;7.88;;;;;;;5.82;100.00;97966.03;5332191;26;20395;-60
2024/04/19 00:11:27;;;;;;;78.75;9.27;;;;;;;5.67;100.00;97957.22;5331756;26;20001;-63
2024/04/19 00:13:52;;;;;;;58.30;7.80;;;;;;;5.83;100.00;97960.91;5331162;26;19997;-63
2024/04/19 00:16:18;;;;;;;50.28;7.10;;;;;;;5.82;100.00;97955.72;5356425;26;20001;-59
2024/04/19 00:18:43;;;;;;;52.65;8.10;;;;;;;5.77;100.00;97949.59;5332108;26;20511;-58
2024/04/19 00:21:08;;;;;;;109.70;10.90;;;;;;;5.78;100.00;97956.50;5333995;26;20082;-60
2024/04/19 00:23:36;;;;;;;80.95;9.98;;;;;;;6.09;100.00;97959.59;5331962;26;20433;-63
2024/04/19 00:26:01;;;;;;;58.75;8.52;;;;;;;5.95;100.00;97955.06;5333306;26;20660;-62
2024/04/19 00:28:27;;;;;;;96.78;10.52;;;;;;;6.02;100.00;97956.03;5333617;26;20441;-61
2024/04/19 00:30:55;;;;;;;47.58;6.88;;;;;;;5.85;100.00;97953.19;5333021;26;20376;-61
2024/04/19 00:33:21;;;;;;;53.65;7.70;;;;;;;5.94;100.00;97955.88;5333606;26;20677;-62
2024/04/19 00:35:46;;;;;;;76.40;8.77;;;;;;;5.80;100.00;97955.72;5334292;26;20558;-63
2024/04/19 00:38:12;;;;;;;72.63;8.57;;;;;;;6.07;100.00;97950.94;5337513;26;20079;-60
2024/04/19 00:40:37;;;;;;;62.42;8.35;;;;;;;6.25;100.00;97950.34;5333787;26;20540;-63
2024/04/19 00:43:03;;;;;;;79.97;8.85;;;;;;;6.63;100.00;97954.25;5333841;26;20008;-62
2024/04/19 00:45:34;;;;;;;77.88;9.27;;;;;;;6.04;100.00;97946.59;5337092;26;20264;-61
2024/04/19 00:48:20;;;;;;;69.20;8.80;;;;;;;6.04;100.00;97951.75;5334269;26;20707;-64
2024/04/19 00:50:51;;;;;;;51.05;8.63;;;;;;;6.17;100.00;97945.06;5335479;26;20000;-64
2024/04/19 00:53:30;;;;;;;57.83;7.80;;;;;;;6.38;100.00;97956.50;5331700;26;20020;-61
2024/04/19 00:55:59;;;;;;;45.42;8.23;;;;;;;6.46;100.00;97948.88;5336201;26;20324;-59
2024/04/19 00:58:25;;;;;;;70.55;8.45;;;;;;;6.49;100.00;97956.66;5333864;26;20477;-61
2024/04/19 01:00:51;;;;;;;63.90;8.10;;;;;;;6.20;100.00;97946.81;5337100;26;20407;-59
2024/04/19 01:03:17;;;;;;;49.20;7.95;;;;;;;6.42;100.00;97947.09;5334794;26;20016;-62
2024/04/19 01:05:42;;;;;;;52.28;7.80;;;;;;;6.31;100.00;97944.38;5335305;26;20089;-60
2024/04/19 01:08:07;;;;;;;97.82;10.65;;;;;;;6.09;100.00;97938.94;5333289;26;20350;-60
2024/04/19 01:10:34;;;;;;;64.28;10.25;;;;;;;6.35;100.00;97941.84;5330648;26;20016;-62
2024/04/19 01:13:00;;;;;;;64.43;8.45;;;;;;;6.63;100.00;97934.44;5348629;26;20047;-63
2024/04/19 01:15:26;;;;;;;92.10;10.73;;;;;;;6.35;100.00;97934.09;5334135;26;20323;-63
2024/04/19 01:17:51;;;;;;;64.95;10.57;;;;;;;6.09;100.00;97920.84;5333561;26;20001;-64
2024/04/19 01:20:17;;;;;;;62.90;9.60;;;;;;;6.45;100.00;97917.00;5334645;26;20082;-61
2024/04/19 01:22:44;;;;;;;62.92;8.90;;;;;;;6.61;100.00;97912.88;5334094;26;20607;-63
2024/04/19 01:25:16;;;;;;;76.78;9.60;;;;;;;6.63;100.00;97913.78;5335869;26;20449;-60
2024/04/19 01:27:42;;;;;;;;;;;;;;;6.27;100.00;97915.03;5333792;26;20014;-62
2024/04/19 01:30:08;;;;;;;73.25;9.13;;;;;;;6.31;100.00;97916.81;5335041;26;20377;-61
2024/04/19 01:32:33;;;;;;;115.00;11.90;;;;;;;6.17;100.00;97921.84;5331726;26;19997;-61
2024/04/19 01:34:59;;;;;;;57.67;8.05;;;;;;;6.02;100.00;97919.88;5338723;26;20048;-61
2024/04/19 01:37:24;;;;;;;82.65;9.98;;;;;;;5.88;100.00;97919.69;5332536;26;20044;-60
2024/04/19 01:39:50;;;;;;;54.75;10.02;;;;;;;5.93;100.00;97911.97;5332962;26;20016;-62
2024/04/19 01:42:15;;;;;;;58.25;9.05;;;;;;;5.57;100.00;97907.16;5332193;26;20008;-63
2024/04/19 01:44:40;;;;;;;59.50;10.80;;;;;;;5.60;100.00;97907.22;5328740;26;20078;-60
2024/04/19 01:47:06;;;;;;;64.93;8.35;;;;;;;6.04;100.00;97915.63;5333626;26;20452;-62
2024/04/19 01:49:31;;;;;;;93.63;10.95;;;;;;;6.31;100.00;97913.38;5331341;26;19996;-63
2024/04/19 01:51:57;;;;;;;59.28;8.15;;;;;;;6.35;100.00;97913.44;5329291;26;20337;-61
2024/04/19 01:54:23;;;;;;;53.72;9.38;;;;;;;5.91;100.00;97904.25;5331160;26;19996;-64
2024/04/19 01:56:48;;;;;;;41.33;8.15;;;;;;;5.85;100.00;97915.34;5332945;26;20008;-62
2024/04/19 01:59:14;;;;;;;65.13;10.18;;;;;;;5.82;100.00;97906.66;5335563;26;20273;-61
2024/04/19 02:01:39;;;;;;;93.68;12.75;;;;;;;6.16;100.00;97911.47;5336361;26;20000;-64
2024/04/19 02:04:04;;;;;;;66.75;10.73;;;;;;;6.10;100.00;97902.81;5332443;26;20776;-62
2024/04/19 02:06:29;;;;;;;70.32;10.27;;;;;;;5.75;100.00;97910.03;5330877;26;20024;-61
2024/04/19 02:08:55;;;;;;;65.07;9.35;;;;;;;6.01;100.00;97907.78;5330788;26;20384;-61
2024/04/19 02:11:20;;;;;;;51.65;8.82;;;;;;;5.89;100.00;97905.03;5330603;26;21111;-63
2024/04/19 02:13:46;;;;;;;60.08;9.73;;;;;;;6.08;100.00;97901.91;5334582;26;20506;-62
2024/04/19 02:16:11;;;;;;;79.88;10.20;;;;;;;6.04;100.00;97899.25;5332155;26;19997;-61
2024/04/19 02:18:36;;;;;;;84.15;10.60;;;;;;;6.14;100.00;97900.25;5329528;26;20351;-63
2024/04/19 02:21:02;;;;;;;70.68;10.90;;;;;;;6.11;100.00;97894.22;5330383;26;20000;-61
2024/04/19 02:23:36;;;;;;;86.90;11.13;;;;;;;5.89;100.00;97895.59;5332699;26;20083;-61
2024/04/19 02:26:06;;;;;;;62.50;10.02;;;;;;;5.93;100.00;97888.75;5330197;26;20016;-62
2024/04/19 02:31:21;;;;;;;77.25;10.35;;;;;;;5.82;100.00;97886.91;5333517;26;20079;-63
2024/04/19 02:33:46;;;;;;;68.60;10.80;;;;;;;5.69;100.00;97880.72;5329941;26;20008;-63
2024/04/19 02:36:12;;;;;;;71.05;12.32;;;;;;;5.95;100.00;97875.03;5329947;26;20016;-60
2024/04/19 02:38:37;;;;;;;85.00;10.57;;;;;;;5.84;100.00;97871.44;5330678;26;19996;-63
2024/04/19 02:41:03;;;;;;;68.10;9.02;;;;;;;5.76;100.00;97868.75;5328558;26;20395;-62
2024/04/19 02:43:29;;;;;;;69.95;11.10;;;;;;;5.88;100.00;97857.72;5332719;26;20415;-63
2024/04/19 02:45:54;;;;;;;59.67;10.57;;;;;;;5.20;100.00;97850.72;5331450;26;19996;-63
2024/04/19 02:48:20;;;;;;;54.63;11.10;;;;;;;5.33;100.00;97856.06;5333847;26;20019;-63
2024/04/19 02:50:49;;;;;;;63.83;9.07;;;;;;;5.94;100.00;97852.63;5328832;26;20023;-61
2024/04/19 02:53:15;;;;;;;52.10;9.10;;;;;;;6.28;100.00;97852.22;5330470;26;20099;-64
2024/04/19 02:55:40;;;;;;;85.72;10.88;;;;;;;6.15;100.00;97856.38;5328001;26;20799;-60
2024/04/19 02:58:05;;;;;;;84.60;10.50;;;;;;;6.15;100.00;97847.75;5331779;26;20011;-62
2024/04/19 03:00:31;;;;;;;90.63;11.82;;;;;;;6.02;100.00;97845.00;5329938;26;20430;-61
2024/04/19 03:02:56;;;;;;;54.53;11.75;;;;;;;6.04;100.00;97833.00;5334088;26;20011;-61
2024/04/19 03:05:21;;;;;;;71.43;11.73;;;;;;;5.59;100.00;97832.38;5332053;26;20001;-63
2024/04/19 03:07:47;;;;;;;48.55;9.57;;;;;;;5.74;100.00;97821.41;5328404;26;20013;-62
2024/04/19 03:10:12;;;;;;;64.25;14.00;;;;;;;5.54;100.00;97822.00;5332023;26;20528;-62
2024/04/19 03:12:37;;;;;;;129.02;13.25;;;;;;;5.59;100.00;97814.31;5328314;26;20802;-62
2024/04/19 03:15:03;;;;;;;72.45;10.95;;;;;;;5.73;100.00;97815.34;5327915;26;20005;-64
2024/04/19 03:17:28;;;;;;;54.42;9.35;;;;;;;6.10;100.00;97811.56;5330839;26;20019;-61
2024/04/19 03:19:53;;;;;;;63.20;9.48;;;;;;;6.19;100.00;97819.41;5331094;26;20016;-65
2024/04/19 03:22:19;;;;;;;56.20;9.68;;;;;;;6.25;100.00;97813.44;5333670;26;20007;-64
2024/04/19 03:24:44;;;;;;;97.35;12.40;;;;;;;6.31;100.00;97821.25;5329897;26;20067;-61
2024/04/19 03:27:10;;;;;;;76.70;11.35;;;;;;;5.89;100.00;97812.97;5332391;26;20004;-64
2024/04/19 03:29:35;;;;;;;84.82;11.98;;;;;;;5.99;100.00;97807.06;5332266;26;20016;-65
2024/04/19 03:32:01;;;;;;;78.65;14.60;;;;;;;5.92;100.00;97807.00;5328609;26;20060;-62
2024/04/19 03:34:26;;;;;;;60.90;10.98;;;;;;;5.88;100.00;97800.94;5330763;26;20241;-61
2024/04/19 03:36:52;;;;;;;62.40;12.68;;;;;;;5.88;100.00;97793.19;5327772;26;20012;-61
2024/04/19 03:39:18;;;;;;;60.42;10.60;;;;;;;5.83;100.00;97798.28;5327555;26;20008;-61
2024/04/19 03:41:44;;;;;;;96.72;12.98;;;;;;;5.83;100.00;97782.78;5327612;26;20022;-61
2024/04/19 03:46:56;;;;;;;52.53;11.10;;;;;;;6.00;100.00;97784.72;5327855;26;20016;-61
2024/04/19 03:49:21;;;;;;;62.72;11.07;;;;;;;6.29;100.00;97781.63;5345272;26;20025;-61
2024/04/19 03:51:48;;;;;;;93.68;13.20;;;;;;;6.19;100.00;97784.94;5329891;26;20637;-64
2024/04/19 03:54:13;;;;;;;70.65;13.95;;;;;;;6.30;100.00;97783.34;5332548;26;20587;-62
2024/04/19 03:56:38;;;;;;;99.95;16.55;;;;;;;6.35;100.00;97775.66;5327536;26;20436;-62
2024/04/19 03:59:04;;;;;;;56.90;12.10;;;;;;;6.44;100.00;97777.47;5334156;26;20000;-61
2024/04/19 04:01:29;;;;;;;52.47;11.15;;;;;;;6.50;100.00;97764.63;5326935;26;20467;-62
2024/04/19 04:03:54;;;;;;;81.53;15.75;;;;;;;6.81;100.00;97764.88;5331986;26;20459;-63
2024/04/19 04:06:20;;;;;;;55.38;11.70;;;;;;;6.77;100.00;97765.72;5338208;26;20551;-60
2024/04/19 04:08:46;;;;;;;74.97;18.45;;;;;;;7.03;100.00;97753.00;5327839;26;20019;-62
2024/04/19 04:11:12;;;;;;;108.03;14.98;;;;;;;7.03;100.00;97746.94;5327098;26;20009;-62
2024/04/19 04:13:41;;;;;;;90.22;15.82;;;;;;;7.09;100.00;97748.72;5331062;26;20328;-62
2024/04/19 04:16:07;;;;;;;68.18;12.02;;;;;;;7.18;100.00;97742.72;5329840;26;20005;-62
2024/04/19 04:18:34;;;;;;;79.35;13.48;;;;;;;6.99;100.00;97738.31;5329929;26;20487;-65
2024/04/19 04:21:00;;;;;;;60.72;11.80;;;;;;;6.75;100.00;97742.44;5328216;26;20001;-62
2024/04/19 04:23:26;;;;;;;55.38;13.65;;;;;;;6.76;100.00;97740.72;5329701;26;20008;-65
2024/04/19 04:25:51;;;;;;;65.10;12.77;;;;;;;7.02;100.00;97735.72;5354369;26;19997;-61
2024/04/19 04:28:16;;;;;;;60.25;12.07;;;;;;;7.01;100.00;97730.53;5330438;26;20456;-62
2024/04/19 04:30:42;;;;;;;93.43;16.15;;;;;;;7.49;100.00;97732.53;5327537;26;20069;-64
2024/04/19 04:33:08;;;;;;;79.10;15.25;;;;;;;7.04;100.00;97735.75;5325327;26;20064;-64
2024/04/19 04:35:39;;;;;;;63.25;11.48;;;;;;;7.39;100.00;97731.66;5328773;26;20001;-63
2024/04/19 04:38:05;;;;;;;67.50;11.50;;;;;;;7.54;100.00;97736.88;5326492;26;20009;-61
2024/04/19 04:40:32;;;;;;;75.00;12.70;;;;;;;7.59;100.00;97729.16;5332813;26;20018;-63
2024/04/19 04:43:00;;;;;;;55.13;11.25;;;;;;;7.74;100.00;97730.94;5328976;26;20001;-61
2024/04/19 04:45:25;;;;;;;58.97;13.30;;;;;;;7.65;100.00;97725.72;5333431;26;20506;-62
2024/04/19 04:47:51;;;;;;;76.72;12.45;;;;;;;7.57;100.00;97722.22;5328001;26;22491;-62
2024/04/19 04:50:19;;;;;;;65.47;12.82;;;;;;;8.04;100.00;97718.06;5329189;26;20015;-64
2024/04/19 04:52:44;;;;;;;72.25;12.85;;;;;;;7.27;100.00;97711.72;5327129;26;20077;-62
2024/04/19 04:55:10;;;;;;;89.40;12.40;;;;;;;7.41;100.00;97717.84;5331112;26;20013;-62
2024/04/19 04:57:35;;;;;;;64.38;11.40;;;;;;;7.75;100.00;97719.72;5327450;26;20037;-61
2024/04/19 05:00:01;;;;;;;66.75;10.88;;;;;;;7.80;100.00;97719.75;5332368;26;20016;-60
2024/04/19 05:02:26;;;;;;;92.72;15.27;;;;;;;7.77;100.00;97719.72;5325231;26;20040;-62
2024/04/19 05:04:51;;;;;;;52.17;10.48;;;;;;;7.59;100.00;97718.78;5330825;26;23026;-65
2024/04/19 05:07:17;;;;;;;45.67;12.10;;;;;;;7.77;100.00;97717.13;5328645;26;20011;-61
2024/04/19 05:09:42;;;;;;;103.13;15.68;;;;;;;8.03;100.00;97708.56;5327803;26;20008;-63
2024/04/19 05:12:08;;;;;;;70.80;11.98;;;;;;;8.25;100.00;97711.22;5328257;26;20005;-65
2024/04/19 05:14:34;;;;;;;61.55;11.30;;;;;;;7.53;100.00;97705.81;5336950;26;20077;-62
2024/04/19 05:16:59;;;;;;;66.68;11.82;;;;;;;8.16;100.00;97705.16;5332601;26;20382;-61
2024/04/19 05:19:25;;;;;;;60.47;10.93;;;;;;;8.57;100.00;97708.66;5337420;26;20541;-61
2024/04/19 05:21:50;;;;;;;85.00;12.60;;;;;;;8.67;100.00;97711.25;5332365;26;20705;-63
2024/04/19 05:24:15;;;;;;;58.78;10.13;;;;;;;8.49;100.00;97699.16;5331654;26;20008;-63
2024/04/19 05:26:41;;;;;;;92.47;12.75;;;;;;;8.69;100.00;97697.44;5330175;26;20011;-61
2024/04/19 05:29:06;;;;;;;63.05;10.27;;;;;;;8.93;100.00;97693.09;5335896;26;19996;-63
2024/04/19 05:31:31;;;;;;;47.58;8.30;;;;;;;8.66;100.00;97694.84;5333080;26;20084;-61
2024/04/19 05:33:57;;;;;;;65.03;10.65;;;;;;;8.79;100.00;97685.31;5331473;26;20025;-61
2024/04/19 05:36:22;;;;;;;50.67;8.73;;;;;;;8.44;100.00;97684.47;5336989;26;20404;-61
2024/04/19 05:38:47;;;;;;;89.65;14.10;;;;;;;8.68;100.00;97687.94;5334189;26;20008;-62
2024/04/19 05:41:13;;;;;;;108.20;12.25;;;;;;;8.96;100.00;97681.84;5333297;26;20052;-62
2024/04/19 05:43:38;;;;;;;78.88;9.95;;;;;;;8.98;100.00;97673.19;5329834;26;20637;-62
2024/04/19 05:46:03;;;;;;;58.47;9.25;;;;;;;8.52;100.00;97676.69;5334656;26;20008;-64
2024/04/19 05:48:29;;;;;;;61.70;9.38;;;;;;;8.12;100.00;97672.31;5333839;26;20001;-62
2024/04/19 05:50:54;;;;;;;45.80;11.40;;;;;;;8.15;100.00;97668.88;5331748;26;20379;-60
2024/04/19 05:53:19;;;;;;;47.58;8.68;;;;;;;7.92;100.00;97660.22;5334840;26;19997;-60
2024/04/19 05:55:45;;;;;;;112.85;18.40;;;;;;;8.65;100.00;97663.75;5328583;26;20005;-60
2024/04/19 05:58:10;;;;;;;57.70;15.68;;;;;;;8.69;100.00;97660.28;5335692;26;20014;-60
2024/04/19 06:00:36;;;;;;;63.50;11.18;;;;;;;8.24;100.00;97655.91;5338949;26;20441;-61
2024/04/19 06:03:02;;;;;;;72.50;11.95;;;;;;;8.54;100.00;97646.44;5330667;26;20408;-62
2024/04/19 06:05:27;;;;;;;53.65;11.07;;;;;;;9.42;100.00;97657.50;5331782;26;20427;-61
2024/04/19 06:07:52;;;;;;;77.88;12.95;;;;;;;10.54;100.00;97662.03;5330360;26;20431;-62
2024/04/19 06:10:18;;;;;;;66.95;13.10;;;;;;;10.88;100.00;97658.25;5333123;26;20004;-61
2024/04/19 06:12:43;;;;;;;94.78;16.45;;;;;;;9.76;100.00;97653.84;5328294;26;19996;-61
2024/04/19 06:15:08;;;;;;;74.20;14.57;;;;;;;9.64;100.00;97645.28;5330142;26;20012;-62
2024/04/19 06:17:34;;;;;;;55.40;12.10;;;;;;;10.74;100.00;97644.53;5330159;26;20000;-62
2024/04/19 06:19:59;;;;;;;57.63;15.52;;;;;;;10.20;100.00;97648.41;5326973;26;20019;-62
2024/04/19 06:22:25;;;;;;;69.82;12.40;;;;;;;9.92;100.00;97651.19;5329288;26;20371;-62
2024/04/19 06:24:50;;;;;;;84.80;11.77;;;;;;;10.18;100.00;97664.03;5331654;26;20471;-62
2024/04/19 06:27:15;;;;;;;59.83;9.82;;;;;;;9.51;100.00;97657.44;5333758;26;20485;-62
2024/04/19 06:29:40;;;;;;;73.78;10.40;;;;;;;10.34;100.00;97662.16;5354876;26;20005;-62
2024/04/19 06:32:06;;;;;;;66.22;10.25;;;;;;;9.80;100.00;97660.75;5330271;26;20001;-61
2024/04/19 06:34:31;;;;;;;54.20;8.35;;;;;;;9.88;100.00;97655.56;5330606;26;20428;-61
2024/04/19 06:36:57;;;;;;;52.10;9.95;;;;;;;10.32;100.00;97655.25;5331025;26;22387;-61
2024/04/19 06:39:26;;;;;;;50.88;8.48;;;;;;;9.97;100.00;97658.09;5332233;26;20000;-62
2024/04/19 06:41:52;;;;;;;84.13;9.57;;;;;;;10.91;100.00;97646.97;5328147;26;20005;-62
2024/04/19 06:44:17;;;;;;;46.25;8.05;;;;;;;12.52;100.00;97635.28;5330093;26;20018;-64
2024/04/19 06:46:43;;;;;;;84.18;10.27;;;;;;;10.98;100.00;97629.56;5330919;26;20272;-60
2024/04/19 06:49:08;;;;;;;61.50;8.85;;;;;;;10.70;100.00;97632.41;5334903;26;20009;-61
2024/04/19 06:51:34;;;;;;;56.60;8.02;;;;;;;10.50;100.00;97625.69;5331174;26;20008;-62
2024/04/19 06:53:59;;;;;;;53.92;10.45;;;;;;;11.54;100.00;97626.28;5332514;26;20012;-61
2024/04/19 06:56:24;;;;;;;58.63;8.55;;;;;;;11.21;100.00;97613.66;5330569;26;20004;-61
2024/04/19 06:58:50;;;;;;;71.78;8.57;;;;;;;11.78;100.00;97619.00;5336148;26;19996;-59
2024/04/19 07:01:15;;;;;;;75.00;8.98;;;;;;;13.33;100.00;97604.22;5329989;26;20776;-60
2024/04/19 07:03:41;;;;;;;49.03;7.47;;;;;;;12.80;100.00;97600.88;5327975;26;20039;-61
2024/04/19 07:06:09;;;;;;;69.68;18.08;;;;;;;13.86;100.00;97614.44;5331781;26;20002;-63
2024/04/19 07:08:34;;;;;;;45.25;6.72;;;;;;;14.50;100.00;97597.22;5329600;26;20008;-61
2024/04/19 07:11:01;;;;;;;50.58;7.53;;;;;;;13.47;100.00;97589.09;5325595;26;20023;-61
2024/04/19 07:13:26;;;;;;;54.67;7.55;;;;;;;14.27;100.00;97597.78;5330055;26;20012;-62
2024/04/19 07:15:52;;;;;;;66.85;8.30;;;;;;;13.74;100.00;97594.63;5329459;26;20055;-59
2024/04/19 07:18:21;;;;;;;43.80;7.15;;;;;;;12.67;100.00;97586.34;5339396;26;20007;-61
2024/04/19 07:20:48;;;;;;;68.72;9.15;;;;;;;13.81;100.00;97590.16;5326041;26;20009;-60
2024/04/19 07:23:13;;;;;;;42.88;7.93;;;;;;;13.90;100.00;97579.47;5334145;26;20000;-63
2024/04/19 07:25:39;;;;;;;36.95;5.97;;;;;;;14.45;100.00;97576.38;5329726;26;20144;-60
2024/04/19 07:28:05;;;;;;;63.20;8.55;;;;;;;14.42;100.00;97565.16;5332165;26;20043;-63
2024/04/19 07:30:30;;;;;;;46.53;7.75;;;;;;;15.78;99.71;97558.75;5331659;26;20016;-61
2024/04/19 07:32:55;;;;;;;63.95;7.68;;;;;;;14.83;94.18;97551.88;5329723;26;20355;-60
2024/04/19 07:35:21;;;;;;;45.38;7.10;;;;;;;14.85;100.00;97547.47;5327788;26;20011;-59
2024/04/19 07:37:46;;;;;;;68.18;8.57;;;;;;;15.39;95.78;97539.81;5330202;26;20082;-60
2024/04/19 07:40:12;;;;;;;54.42;7.88;;;;;;;15.66;91.01;97534.63;5331739;26;20051;-59
2024/04/19 07:42:37;;;;;;;61.95;7.38;;;;;;;15.93;95.79;97537.28;5331067;26;20005;-60
2024/04/19 07:45:03;;;;;;;52.17;7.78;;;;;;;15.30;86.63;97527.88;5334627;26;20078;-59
2024/04/19 07:47:28;;;;;;;44.35;6.85;;;;;;;15.12;96.63;97528.38;5332131;26;20000;-60
2024/04/19 07:49:53;;;;;;;74.90;8.85;;;;;;;14.45;88.10;97517.97;5327348;26;20004;-60
2024/04/19 07:52:19;;;;;;;45.40;7.75;;;;;;;14.44;99.92;97513.66;5331261;26;20401;-62
2024/04/19 07:54:45;;;;;;;43.53;6.90;;;;;;;14.95;94.90;97511.41;5326818;26;20009;-62
2024/04/19 07:57:10;;;;;;;58.40;8.25;;;;;;;14.91;100.00;97496.69;5331670;26;19997;-62
2024/04/19 07:59:36;;;;;;;39.22;6.85;;;;;;;13.93;100.00;97489.66;5330932;26;20466;-59
2024/04/19 08:02:01;;;;;;;57.70;17.23;;;;;;;13.76;100.00;97492.69;5325569;26;20464;-63
2024/04/19 08:04:26;;;;;;;51.50;7.70;;;;;;;13.78;100.00;97488.28;5331868;26;20001;-60
2024/04/19 08:06:52;;;;;;;67.63;8.68;;;;;;;13.99;100.00;97491.28;5329242;26;20012;-63
2024/04/19 08:09:17;;;;;;;46.53;7.30;;;;;;;13.50;100.00;97504.59;5332245;26;20004;-61
2024/04/19 08:11:42;;;;;;;59.42;21.05;;;;;;;14.18;100.00;97479.41;5329968;26;20395;-62
2024/04/19 08:14:08;;;;;;;60.42;11.00;;;;;;;13.90;100.00;97479.28;5329798;26;20019;-62
2024/04/19 08:16:33;;;;;;;47.92;8.00;;;;;;;14.71;100.00;97487.63;5338310;26;20005;-59
2024/04/19 08:18:58;;;;;;;63.38;8.38;;;;;;;12.63;100.00;97483.78;5326054;26;19997;-64
2024/04/19 08:21:24;;;;;;;52.53;7.50;;;;;;;13.58;100.00;97486.16;5330237;26;20000;-63
2024/04/19 08:23:49;;;;;;;71.05;8.60;;;;;;;13.30;100.00;97487.63;5328855;26;20376;-61
2024/04/19 08:26:14;;;;;;;47.13;7.35;;;;;;;12.34;100.00;97480.84;5330411;26;20005;-61
2024/04/19 08:28:40;;;;;;;52.92;8.25;;;;;;;12.24;100.00;97481.91;5331345;26;20000;-61
2024/04/19 08:31:05;;;;;;;69.22;8.68;;;;;;;11.77;100.00;97481.81;5328141;26;20015;-62
2024/04/19 08:33:30;;;;;;;41.08;6.60;;;;;;;11.93;100.00;97479.81;5330281;26;20020;-63
2024/04/19 08:35:56;;;;;;;71.47;9.75;;;;;;;12.81;100.00;97472.09;5329009;26;20775;-63
2024/04/19 08:38:22;;;;;;;51.50;9.25;;;;;;;12.29;100.00;97461.81;5329660;26;20005;-62
2024/04/19 08:40:56;;;;;;;57.22;7.88;;;;;;;12.24;100.00;97463.66;5329376;26;20035;-61
2024/04/19 08:43:22;;;;;;;43.67;10.00;;;;;;;12.75;100.00;97456.59;5333155;26;20066;-62
2024/04/19 08:45:47;;;;;;;41.72;6.90;;;;;;;12.85;100.00;97449.44;5327422;26;20008;-59
2024/04/19 08:48:15;;;;;;;68.30;24.02;;;;;;;12.23;100.00;97447.16;5334972;26;20007;-61
2024/04/19 08:50:43;;;;;;;57.78;8.27;;;;;;;12.05;100.00;97442.25;5333102;26;20802;-61
2024/04/19 08:53:09;;;;;;;45.40;7.50;;;;;;;12.84;100.00;97450.31;5332463;26;20015;-60
2024/04/19 08:55:40;;;;;;;44.80;7.53;;;;;;;12.60;100.00;97437.75;5331295;26;20004;-63
2024/04/19 08:58:06;;;;;;;69.55;9.90;;;;;;;11.45;100.00;97438.03;5332684;26;20000;-66
2024/04/19 09:00:31;;;;;;;39.60;6.78;;;;;;;11.39;100.00;97426.84;5339357;26;19997;-60
2024/04/19 09:02:57;;;;;;;56.90;7.05;;;;;;;11.23;100.00;97429.69;5334370;26;20093;-62
2024/04/19 09:05:22;;;;;;;50.70;7.72;;;;;;;11.47;100.00;97417.16;5335179;26;20086;-63
2024/04/19 09:07:48;;;;;;;54.13;11.50;;;;;;;12.41;100.00;97416.41;5332879;26;19996;-59
2024/04/19 09:10:13;;;;;;;53.75;7.30;;;;;;;11.67;100.00;97413.38;5334575;26;20355;-60
2024/04/19 09:12:39;;;;;;;73.07;8.95;;;;;;;12.81;100.00;97413.84;5357637;26;20077;-63
2024/04/19 09:15:05;;;;;;;75.35;9.00;;;;;;;11.37;100.00;97413.00;5331234;26;20462;-62
2024/04/19 09:17:31;;;;;;;47.20;7.15;;;;;;;12.02;100.00;97408.44;5330011;26;20011;-62
2024/04/19 09:19:58;;;;;;;92.45;9.40;;;;;;;11.35;100.00;97402.59;5334971;26;20001;-63
2024/04/19 09:22:23;;;;;;;44.25;6.63;;;;;;;11.95;100.00;97389.44;5331476;26;21012;-60
2024/04/19 09:24:52;;;;;;;49.05;7.03;;;;;;;10.75;100.00;97394.81;5332215;26;20000;-62
2024/04/19 09:27:18;;;;;;;67.47;7.97;;;;;;;10.97;100.00;97380.63;5331525;26;20004;-58
2024/04/19 09:29:44;;;;;;;41.42;6.88;;;;;;;11.66;100.00;97390.81;5335826;26;20455;-64
2024/04/19 09:32:09;;;;;;;57.38;8.35;;;;;;;12.17;100.00;97391.69;5332466;26;20477;-61
2024/04/19 09:34:35;;;;;;;51.10;9.45;;;;;;;12.41;100.00;97379.03;5334654;26;20001;-62
2024/04/19 09:37:02;;;;;;;76.90;8.15;;;;;;;11.31;100.00;97369.69;5329143;26;19997;-61
2024/04/19 09:39:29;;;;;;;46.55;7.63;;;;;;;11.22;100.00;97362.03;5333012;26;20004;-60
2024/04/19 09:41:56;;;;;;;64.28;8.45;;;;;;;10.90;100.00;97365.09;5332428;26;20475;-61
2024/04/19 09:44:23;;;;;;;42.10;12.27;;;;;;;10.29;100.00;97363.28;5332896;26;20016;-61
2024/04/19 09:46:50;;;;;;;48.17;16.80;;;;;;;11.03;100.00;97355.34;5326573;26;20016;-58
2024/04/19 09:49:20;;;;;;;49.92;6.97;;;;;;;11.06;100.00;97350.13;5330991;26;20383;-65
2024/04/19 09:51:48;;;;;;;42.78;6.53;;;;;;;11.37;100.00;97347.91;5332652;26;20001;-62
2024/04/19 09:54:15;;;;;;;81.07;29.23;;;;;;;11.59;100.00;97348.41;5330956;26;20012;-62
2024/04/19 09:56:50;;;;;;;63.55;9.82;;;;;;;10.99;100.00;97332.88;5331197;26;20440;-59
2024/04/19 09:59:15;;;;;;;59.22;16.90;;;;;;;10.43;100.00;97338.84;5332760;26;20132;-63
2024/04/19 10:01:41;;;;;;;53.17;10.02;;;;;;;10.83;100.00;97326.22;5332115;26;20040;-63
2024/04/19 10:04:10;;;;;;;92.13;20.45;;;;;;;10.46;100.00;97328.44;5333890;26;20253;-61
2024/04/19 10:06:37;;;;;;;51.78;8.90;;;;;;;10.46;100.00;97327.59;5332270;26;20004;-59
2024/04/19 10:09:08;;;;;;;73.38;8.30;;;;;;;11.33;100.00;97321.06;5325763;26;20011;-62
2024/04/19 10:11:37;;;;;;;46.43;7.50;;;;;;;10.60;100.00;97315.25;5332085;26;20610;-61
2024/04/19 10:14:03;;;;;;;78.88;9.82;;;;;;;10.42;100.00;97311.13;5333659;26;20138;-60
2024/04/19 10:16:28;;;;;;;46.38;10.43;;;;;;;10.36;100.00;97306.03;5335727;26;20066;-61
2024/04/19 10:18:53;;;;;;;71.00;11.10;;;;;;;9.81;100.00;97305.81;5331723;26;20386;-58
2024/04/19 10:21:24;;;;;;;57.58;10.98;;;;;;;11.16;100.00;97305.72;5346233;26;20001;-60
2024/04/19 10:23:49;;;;;;;43.92;7.55;;;;;;;9.96;100.00;97299.59;5333280;26;20327;-62
2024/04/19 10:26:19;;;;;;;54.25;8.07;;;;;;;9.71;100.00;97298.13;5332515;26;20090;-62
2024/04/19 10:28:55;;;;;;;52.90;13.02;;;;;;;10.50;100.00;97295.47;5335664;26;20005;-61
2024/04/19 10:31:20;;;;;;;87.88;11.63;;;;;;;10.14;100.00;97288.13;5328711;26;20507;-62
2024/04/19 10:33:46;;;;;;;43.40;7.43;;;;;;;10.11;100.00;97289.03;5330110;26;20020;-62
2024/04/19 10:36:12;;;;;;;49.72;8.93;;;;;;;11.01;100.00;97280.81;5331406;26;20443;-62
2024/04/19 10:38:37;;;;;;;62.72;12.27;;;;;;;11.19;100.00;97283.13;5331038;26;20430;-61
2024/04/19 10:41:04;;;;;;;124.22;71.20;;;;;;;11.15;100.00;97278.00;5327938;26;20533;-61
2024/04/19 10:43:31;;;;;;;56.00;15.52;;;;;;;9.87;100.00;97254.66;5332592;26;20255;-61
2024/04/19 10:45:57;;;;;;;74.40;10.15;;;;;;;11.24;100.00;97258.75;5329763;26;20004;-62
2024/04/19 10:48:22;;;;;;;60.88;20.95;;;;;;;12.28;100.00;97258.50;5329691;26;20009;-60
2024/04/19 10:50:48;;;;;;;49.67;6.93;;;;;;;11.42;100.00;97267.97;5329234;26;20015;-62
2024/04/19 10:53:16;;;;;;;57.63;9.20;;;;;;;10.96;100.00;97252.28;5326113;26;20277;-61
2024/04/19 10:55:42;;;;;;;46.63;6.25;;;;;;;10.36;100.00;97252.28;5335033;26;20214;-60
2024/04/19 10:58:07;;;;;;;71.95;13.38;;;;;;;10.29;100.00;97238.53;5333314;26;20727;-63
2024/04/19 11:00:32;;;;;;;62.03;11.70;;;;;;;12.55;100.00;97235.28;5330213;26;20004;-60
2024/04/19 11:02:58;;;;;;;74.65;18.10;;;;;;;12.50;100.00;97235.38;5331750;26;20009;-61
2024/04/19 11:05:25;;;;;;;50.60;13.95;;;;;;;11.28;100.00;97240.44;5331488;26;20005;-58
2024/04/19 11:07:50;;;;;;;55.30;7.50;;;;;;;10.59;100.00;97242.47;5332849;26;20455;-60
2024/04/19 11:10:15;;;;;;;55.30;8.38;;;;;;;10.45;100.00;97234.88;5326985;26;20000;-59
2024/04/19 11:12:41;;;;;;;70.30;7.70;;;;;;;10.35;100.00;97231.53;5332717;26;19996;-60
2024/04/19 11:15:07;;;;;;;87.05;9.60;;;;;;;11.12;100.00;97218.19;5328116;26;20416;-61
2024/04/19 11:17:32;;;;;;;48.00;24.30;;;;;;;12.16;100.00;97210.94;5329586;26;20398;-59
2024/04/19 11:19:58;;;;;;;91.30;38.05;;;;;;;11.65;100.00;97214.59;5325921;26;20009;-63